createdAt,value
2022-10-16T00:02:31.729Z,67.73
2022-10-16T00:05:18.336Z,67.69
2022-10-16T00:08:10.905Z,67.66
2022-10-16T00:10:57.616Z,67.70
2022-10-16T00:13:52.395Z,67.57
2022-10-16T00:16:45.080Z,67.42
2022-10-16T00:19:51.476Z,67.47
2022-10-16T00:22:58.412Z,67.40
2022-10-16T00:26:15.184Z,67.58
2022-10-16T00:29:20.922Z,67.39
2022-10-16T00:32:27.006Z,67.34
2022-10-16T00:35:32.892Z,67.19
2022-10-16T00:38:38.643Z,67.12
2022-10-16T00:41:44.375Z,67.26
2022-10-16T00:45:11.977Z,67.22
2022-10-16T00:48:18.418Z,67.13
2022-10-16T00:51:24.216Z,67.38
2022-10-16T00:54:45.673Z,67.73
2022-10-16T00:57:51.882Z,68.58
2022-10-16T01:00:56.725Z,69.20
2022-10-16T01:04:03.021Z,68.90
2022-10-16T01:07:30.771Z,69.05
2022-10-16T01:10:47.216Z,69.20
2022-10-16T01:13:58.105Z,69.37
2022-10-16T01:17:15.642Z,69.77
2022-10-16T01:20:36.070Z,69.91
2022-10-16T01:23:50.894Z,69.79
2022-10-16T01:27:27.903Z,70.52
2022-10-16T01:30:37.838Z,70.30
2022-10-16T01:33:58.992Z,70.42
2022-10-16T01:37:14.622Z,70.43
2022-10-16T01:40:25.376Z,70.72
2022-10-16T01:43:38.251Z,71.11
2022-10-16T01:46:42.950Z,71.22
2022-10-16T01:49:50.342Z,70.82
2022-10-16T01:52:59.006Z,70.73
2022-10-16T01:56:05.421Z,71.14
2022-10-16T01:59:28.916Z,71.86
2022-10-16T02:02:28.596Z,72.63
2022-10-16T02:05:46.436Z,72.49
2022-10-16T02:08:52.401Z,72.78
2022-10-16T02:11:58.763Z,72.73
2022-10-16T02:15:05.049Z,71.90
2022-10-16T02:18:11.667Z,71.69
2022-10-16T02:21:18.513Z,72.20
2022-10-16T02:24:45.610Z,72.78
2022-10-16T02:28:01.591Z,72.32
2022-10-16T02:31:17.607Z,72.44
2022-10-16T02:34:24.320Z,72.37
2022-10-16T02:37:31.790Z,72.07
2022-10-16T02:40:38.022Z,71.48
2022-10-16T02:43:45.200Z,71.60
2022-10-16T02:46:50.689Z,71.56
2022-10-16T02:49:56.290Z,72.03
2022-10-16T02:53:02.036Z,72.34
2022-10-16T02:56:07.845Z,72.40
2022-10-16T02:59:13.460Z,72.56
2022-10-16T03:02:20.006Z,72.88
2022-10-16T03:05:25.029Z,73.03
2022-10-16T03:08:31.196Z,72.75
2022-10-16T03:11:37.162Z,72.71
2022-10-16T03:14:43.989Z,72.64
2022-10-16T03:17:50.639Z,72.78
2022-10-16T03:20:57.996Z,72.86
2022-10-16T03:24:04.720Z,72.63
2022-10-16T03:27:10.376Z,72.61
2022-10-16T03:30:15.274Z,72.96
2022-10-16T03:33:21.385Z,73.12
2022-10-16T03:36:26.657Z,73.34
2022-10-16T03:39:31.968Z,73.18
2022-10-16T03:42:37.388Z,73.33
2022-10-16T03:45:42.717Z,73.80
2022-10-16T03:48:48.311Z,73.83
2022-10-16T03:51:53.888Z,74.18
2022-10-16T03:54:59.842Z,73.81
2022-10-16T03:58:05.442Z,73.74
2022-10-16T04:01:11.085Z,73.70
2022-10-16T04:04:16.839Z,73.50
2022-10-16T04:07:23.510Z,73.44
2022-10-16T04:10:29.189Z,73.54
2022-10-16T04:13:34.647Z,73.74
2022-10-16T04:16:41.828Z,73.98
2022-10-16T04:19:41.912Z,73.87
2022-10-16T04:22:40.528Z,73.76
2022-10-16T04:25:47.193Z,74.03
2022-10-16T04:28:54.137Z,74.41
2022-10-16T04:32:00.450Z,74.23
2022-10-16T04:35:06.221Z,75.14
2022-10-16T04:38:14.500Z,75.50
2022-10-16T04:41:20.434Z,74.70
2022-10-16T04:44:25.180Z,74.44
2022-10-16T04:47:32.088Z,74.36
2022-10-16T04:50:37.832Z,74.83
2022-10-16T04:53:44.533Z,74.96
2022-10-16T04:56:53.860Z,76.06
2022-10-16T05:00:00.819Z,75.50
2022-10-16T05:03:08.950Z,75.18
2022-10-16T05:06:14.646Z,75.20
2022-10-16T05:09:21.531Z,74.86
2022-10-16T05:12:27.446Z,74.64
2022-10-16T05:15:34.109Z,75.09
2022-10-16T05:18:39.713Z,74.94
2022-10-16T05:21:45.581Z,74.58
2022-10-16T05:24:52.239Z,75.90
2022-10-16T05:27:58.332Z,76.17
2022-10-16T05:31:04.092Z,75.26
2022-10-16T05:34:15.801Z,75.65
2022-10-16T05:37:22.028Z,73.80
2022-10-16T05:40:28.612Z,73.45
2022-10-16T05:43:35.263Z,72.74
2022-10-16T05:46:40.969Z,72.36
2022-10-16T05:49:45.744Z,72.12
2022-10-16T05:52:51.515Z,71.35
2022-10-16T05:55:57.027Z,70.78
2022-10-16T05:59:02.580Z,70.36
2022-10-16T06:02:09.365Z,70.05
2022-10-16T06:05:14.248Z,69.21
2022-10-16T06:08:22.099Z,68.78
2022-10-16T06:11:29.741Z,68.25
2022-10-16T06:14:36.423Z,67.88
2022-10-16T06:17:43.906Z,66.83
2022-10-16T06:20:49.879Z,66.34
2022-10-16T06:23:55.430Z,65.57
2022-10-16T06:27:00.703Z,65.32
2022-10-16T06:30:06.458Z,65.02
2022-10-16T06:33:12.500Z,64.00
2022-10-16T06:36:19.567Z,64.75
2022-10-16T06:39:24.888Z,63.74
2022-10-16T06:42:31.301Z,63.27
2022-10-16T06:45:36.756Z,62.57
2022-10-16T06:48:42.980Z,62.94
2022-10-16T06:51:49.985Z,61.85
2022-10-16T06:54:55.456Z,61.73
2022-10-16T06:58:03.152Z,60.66
2022-10-16T07:01:11.929Z,60.06
2022-10-16T07:04:17.992Z,61.35
2022-10-16T07:07:23.660Z,61.10
2022-10-16T07:10:30.804Z,61.12
2022-10-16T07:13:37.935Z,60.32
2022-10-16T07:16:46.431Z,59.93
2022-10-16T07:19:52.181Z,59.72
2022-10-16T07:22:58.111Z,59.81
2022-10-16T07:26:09.510Z,58.74
2022-10-16T07:29:15.400Z,58.45
2022-10-16T07:32:21.212Z,57.70
2022-10-16T07:35:26.707Z,57.65
2022-10-16T07:38:32.668Z,57.41
2022-10-16T07:41:37.454Z,56.25
2022-10-16T07:44:42.486Z,56.55
2022-10-16T07:47:48.106Z,56.57
2022-10-16T07:50:53.703Z,55.77
2022-10-16T07:53:59.851Z,55.88
2022-10-16T07:57:05.311Z,55.43
2022-10-16T08:00:11.345Z,54.72
2022-10-16T08:03:10.648Z,54.63
2022-10-16T08:06:16.630Z,53.76
2022-10-16T08:09:15.757Z,53.45
2022-10-16T08:12:08.670Z,53.60
2022-10-16T08:15:08.354Z,53.04
2022-10-16T08:18:07.832Z,53.96
2022-10-16T08:21:08.218Z,53.25
2022-10-16T08:24:01.693Z,52.64
2022-10-16T08:27:09.012Z,52.33
2022-10-16T08:30:14.672Z,52.15
2022-10-16T08:33:21.944Z,50.59
2022-10-16T08:36:27.782Z,51.35
2022-10-16T08:39:33.558Z,50.66
2022-10-16T08:43:19.220Z,50.54
2022-10-16T08:46:51.978Z,50.18
2022-10-16T08:50:05.398Z,50.84
2022-10-16T08:53:12.286Z,50.55
2022-10-16T08:56:17.979Z,50.36
2022-10-16T08:59:30.040Z,50.61
2022-10-16T09:02:44.169Z,50.60
2022-10-16T09:06:02.574Z,50.33
2022-10-16T09:09:24.002Z,49.96
2022-10-16T09:12:45.311Z,49.67
2022-10-16T09:15:57.211Z,50.23
2022-10-16T09:19:30.830Z,49.86
2022-10-16T09:22:38.304Z,49.41
2022-10-16T09:25:43.196Z,49.06
2022-10-16T09:28:49.968Z,49.46
2022-10-16T09:31:56.625Z,48.25
2022-10-16T09:35:10.255Z,48.35
2022-10-16T09:38:16.562Z,47.52
2022-10-16T09:41:35.160Z,47.51
2022-10-16T09:44:44.836Z,47.17
2022-10-16T09:47:57.715Z,46.60
2022-10-16T09:51:15.168Z,46.92
2022-10-16T09:54:32.659Z,46.66
2022-10-16T09:57:38.594Z,46.04
2022-10-16T10:00:45.556Z,46.18
2022-10-16T10:03:57.534Z,46.72
2022-10-16T10:07:09.252Z,46.04
2022-10-16T10:10:16.915Z,46.31
2022-10-16T10:13:37.635Z,45.70
2022-10-16T10:16:43.778Z,45.90
2022-10-16T10:20:10.892Z,46.43
2022-10-16T10:23:18.222Z,47.79
2022-10-16T10:26:37.802Z,47.71
2022-10-16T10:33:39.618Z,46.38
2022-10-16T10:36:56.419Z,45.47
2022-10-16T10:40:10.405Z,46.67
2022-10-16T10:43:24.250Z,46.16
2022-10-16T10:46:33.966Z,45.89
2022-10-16T10:50:13.170Z,45.48
2022-10-16T10:53:52.126Z,45.10
2022-10-16T10:57:14.164Z,45.12
2022-10-16T11:00:40.117Z,45.33
2022-10-16T11:04:16.263Z,44.36
2022-10-16T11:07:30.001Z,44.35
2022-10-16T11:11:02.563Z,48.71
2022-10-16T11:14:32.437Z,47.81
2022-10-16T11:17:52.741Z,48.26
2022-10-16T11:21:16.899Z,48.09
2022-10-16T11:24:33.742Z,47.56
2022-10-16T11:28:08.953Z,47.75
2022-10-16T11:31:29.019Z,48.62
2022-10-16T11:35:00.300Z,47.69
2022-10-16T11:38:06.578Z,47.51
2022-10-16T11:41:16.434Z,48.12
2022-10-16T11:44:53.025Z,48.42
2022-10-16T11:48:03.662Z,47.35
2022-10-16T11:51:13.028Z,46.62
2022-10-16T11:54:46.154Z,46.04
2022-10-16T11:58:00.124Z,46.56
2022-10-16T12:01:46.913Z,45.93
2022-10-16T12:05:04.701Z,46.42
2022-10-16T12:08:25.693Z,46.82
2022-10-16T12:11:41.272Z,45.67
2022-10-16T12:15:14.657Z,45.60
2022-10-16T12:18:00.310Z,46.02
2022-10-16T12:21:14.518Z,46.45
2022-10-16T12:24:21.067Z,46.07
2022-10-16T12:27:47.730Z,45.74
2022-10-16T12:30:53.371Z,45.77
2022-10-16T12:34:16.745Z,45.95
2022-10-16T12:37:32.399Z,46.34
2022-10-16T12:40:45.967Z,46.16
2022-10-16T12:43:58.305Z,45.70
2022-10-16T12:47:06.229Z,45.86
2022-10-16T12:50:16.685Z,46.10
2022-10-16T12:53:36.281Z,45.46
2022-10-16T12:57:12.671Z,47.19
2022-10-16T13:00:59.516Z,50.02
2022-10-16T13:04:12.143Z,50.83
2022-10-16T13:07:39.966Z,48.96
2022-10-16T13:11:18.109Z,50.80
2022-10-16T13:15:06.816Z,50.63
2022-10-16T13:18:31.574Z,50.84
2022-10-16T13:22:04.231Z,50.74
2022-10-16T13:25:46.914Z,50.56
2022-10-16T13:28:54.009Z,49.16
2022-10-16T13:32:01.022Z,49.26
2022-10-16T13:35:09.432Z,49.26
2022-10-16T13:38:21.188Z,48.81
2022-10-16T13:41:32.591Z,48.90
2022-10-16T13:44:38.172Z,48.80
2022-10-16T13:47:45.535Z,48.88
2022-10-16T13:50:51.575Z,48.59
2022-10-16T13:53:57.813Z,48.56
2022-10-16T13:57:09.398Z,48.74
2022-10-16T14:00:11.358Z,49.84
2022-10-16T14:03:24.339Z,48.19
2022-10-16T14:06:33.388Z,48.52
2022-10-16T14:12:50.977Z,48.99
2022-10-16T14:15:58.554Z,48.63
2022-10-16T14:19:14.881Z,48.69
2022-10-16T14:22:22.701Z,48.62
2022-10-16T14:25:44.567Z,49.45
2022-10-16T14:28:49.926Z,49.65
2022-10-16T14:31:56.352Z,49.56
2022-10-16T14:35:01.778Z,49.30
2022-10-16T14:38:11.164Z,49.84
2022-10-16T14:41:16.270Z,50.53
2022-10-16T14:44:21.555Z,50.80
2022-10-16T14:47:36.149Z,51.06
2022-10-16T14:50:48.402Z,51.84
2022-10-16T14:53:57.769Z,52.52
2022-10-16T14:57:12.270Z,52.79
2022-10-16T15:00:24.333Z,52.90
2022-10-16T15:03:30.614Z,53.44
2022-10-16T15:06:36.779Z,53.52
2022-10-16T15:09:48.050Z,53.67
2022-10-16T15:12:53.448Z,53.77
2022-10-16T15:16:04.492Z,54.37
2022-10-16T15:19:09.749Z,54.57
2022-10-16T15:22:15.480Z,54.95
2022-10-16T15:25:33.778Z,55.16
2022-10-16T15:28:40.168Z,54.97
2022-10-16T15:31:46.335Z,55.27
2022-10-16T15:34:53.054Z,55.53
2022-10-16T15:37:59.413Z,56.00
2022-10-16T15:40:59.116Z,56.08
2022-10-16T15:44:05.424Z,56.33
2022-10-16T15:47:10.785Z,56.99
2022-10-16T15:50:16.633Z,57.50
2022-10-16T15:53:22.219Z,57.79
2022-10-16T15:56:30.689Z,58.98
2022-10-16T15:59:37.259Z,59.42
2022-10-16T16:02:43.191Z,59.77
2022-10-16T16:05:48.674Z,59.90
2022-10-16T16:08:56.135Z,60.29
2022-10-16T16:12:02.600Z,60.34
2022-10-16T16:15:09.459Z,61.12
2022-10-16T16:18:14.744Z,61.14
2022-10-16T16:21:20.904Z,61.76
2022-10-16T16:24:26.511Z,62.32
2022-10-16T16:27:32.274Z,62.17
2022-10-16T16:30:38.209Z,62.54
2022-10-16T16:33:38.263Z,62.72
2022-10-16T16:36:45.297Z,62.71
2022-10-16T16:39:51.064Z,63.11
2022-10-16T16:42:56.825Z,62.92
2022-10-16T16:46:03.853Z,63.28
2022-10-16T16:49:08.944Z,63.76
2022-10-16T16:52:15.263Z,63.43
2022-10-16T16:55:21.733Z,63.23
2022-10-16T16:58:27.760Z,62.96
2022-10-16T17:01:35.479Z,62.89
2022-10-16T17:04:40.632Z,62.25
2022-10-16T17:07:48.273Z,61.29
2022-10-16T17:11:00.798Z,60.50
2022-10-16T17:14:07.315Z,59.79
2022-10-16T17:17:13.967Z,59.60
2022-10-16T17:20:21.685Z,59.03
2022-10-16T17:23:27.458Z,58.20
2022-10-16T17:26:33.410Z,57.89
2022-10-16T17:29:39.419Z,57.86
2022-10-16T17:32:45.069Z,57.94
2022-10-16T17:35:59.994Z,57.98
2022-10-16T17:39:08.273Z,57.88
2022-10-16T17:42:14.065Z,57.81
2022-10-16T17:45:20.367Z,57.69
2022-10-16T17:48:27.093Z,57.52
2022-10-16T17:51:34.841Z,57.14
2022-10-16T17:54:40.826Z,57.10
2022-10-16T17:57:46.444Z,57.02
2022-10-16T18:00:51.945Z,57.45
2022-10-16T18:03:57.196Z,57.53
2022-10-16T18:07:03.521Z,57.55
2022-10-16T18:10:12.390Z,58.21
2022-10-16T18:13:19.987Z,58.34
2022-10-16T18:16:27.424Z,58.19
2022-10-16T18:19:32.951Z,58.28
2022-10-16T18:22:38.352Z,58.09
2022-10-16T18:25:43.411Z,58.34
2022-10-16T18:28:49.534Z,59.39
2022-10-16T18:31:56.125Z,59.30
2022-10-16T18:35:02.252Z,58.91
2022-10-16T18:38:02.877Z,58.92
2022-10-16T18:41:02.956Z,58.77
2022-10-16T18:44:09.282Z,58.56
2022-10-16T18:47:15.136Z,58.58
2022-10-16T18:50:22.485Z,58.42
2022-10-16T18:56:37.585Z,59.07
2022-10-16T18:59:43.791Z,59.81
2022-10-16T19:02:48.523Z,59.32
2022-10-16T19:05:54.426Z,59.25
2022-10-16T19:09:00.146Z,59.37
2022-10-16T19:12:06.243Z,59.52
2022-10-16T19:15:12.599Z,59.98
2022-10-16T19:18:19.355Z,59.41
2022-10-16T19:21:27.305Z,59.82
2022-10-16T19:24:32.993Z,59.88
2022-10-16T19:27:37.801Z,59.85
2022-10-16T19:30:43.174Z,60.43
2022-10-16T19:33:43.126Z,63.67
2022-10-16T19:36:50.293Z,70.35
2022-10-16T19:39:57.222Z,69.03
2022-10-16T19:43:03.648Z,68.16
2022-10-16T19:46:10.467Z,68.05
2022-10-16T19:49:19.242Z,68.49
2022-10-16T19:52:24.732Z,68.36
2022-10-16T19:55:30.360Z,69.73
2022-10-16T19:58:37.221Z,70.04
2022-10-16T20:01:44.070Z,69.42
2022-10-16T20:04:50.451Z,68.78
2022-10-16T20:07:56.238Z,68.32
2022-10-16T20:11:09.220Z,68.90
2022-10-16T20:14:14.462Z,69.39
2022-10-16T20:17:21.186Z,69.65
2022-10-16T20:20:27.146Z,69.72
2022-10-16T20:23:34.382Z,70.38
2022-10-16T20:26:41.089Z,70.53
2022-10-16T20:29:47.146Z,70.88
2022-10-16T20:32:53.638Z,72.33
2022-10-16T20:36:02.472Z,71.46
2022-10-16T20:39:09.227Z,72.47
2022-10-16T20:42:15.948Z,72.29
2022-10-16T20:45:22.258Z,72.51
2022-10-16T20:48:28.028Z,72.27
2022-10-16T20:51:37.065Z,73.57
2022-10-16T20:54:42.179Z,73.66
2022-10-16T20:57:49.419Z,73.62
2022-10-16T21:00:55.956Z,73.82
2022-10-16T21:04:14.883Z,74.08
2022-10-16T21:07:20.612Z,74.88
2022-10-16T21:10:26.538Z,74.24
2022-10-16T21:13:31.991Z,73.95
2022-10-16T21:16:37.770Z,73.92
2022-10-16T21:19:46.805Z,74.56
2022-10-16T21:22:51.942Z,74.75
2022-10-16T21:26:05.357Z,74.71
2022-10-16T21:29:20.877Z,74.32
2022-10-16T21:32:26.057Z,74.32
2022-10-16T21:35:32.525Z,74.75
2022-10-16T21:38:38.854Z,74.95
2022-10-16T21:41:46.441Z,75.34
2022-10-16T21:44:54.725Z,74.10
2022-10-16T21:48:03.375Z,74.84
2022-10-16T21:51:09.723Z,74.48
2022-10-16T21:54:16.775Z,74.35
2022-10-16T21:57:23.330Z,74.14
2022-10-16T22:00:22.445Z,73.69
2022-10-16T22:03:27.853Z,74.44
2022-10-16T22:06:36.863Z,74.64
2022-10-16T22:09:43.308Z,74.68
2022-10-16T22:12:49.693Z,74.64
2022-10-16T22:16:03.239Z,74.64
2022-10-16T22:19:13.283Z,74.67
2022-10-16T22:22:18.944Z,74.55
2022-10-16T22:25:24.379Z,74.41
2022-10-16T22:28:30.332Z,74.17
2022-10-16T22:31:36.331Z,74.40
2022-10-16T22:34:41.968Z,74.29
2022-10-16T22:37:47.482Z,74.06
2022-10-16T22:40:53.352Z,73.69
2022-10-16T22:44:00.987Z,73.49
2022-10-16T22:47:08.641Z,73.54
2022-10-16T22:50:15.035Z,73.62
2022-10-16T22:53:20.611Z,73.51
2022-10-16T22:56:26.098Z,74.88
2022-10-16T22:59:26.440Z,74.58
2022-10-16T23:02:32.185Z,75.48
2022-10-16T23:05:38.593Z,74.93
2022-10-16T23:08:44.761Z,74.81
2022-10-16T23:11:52.217Z,75.18
2022-10-16T23:14:57.069Z,74.74
2022-10-16T23:18:03.873Z,75.49
2022-10-16T23:21:10.340Z,75.61
2022-10-16T23:24:16.832Z,75.93
2022-10-16T23:27:22.457Z,75.80
2022-10-16T23:30:29.727Z,77.70
2022-10-16T23:33:35.853Z,76.40
2022-10-16T23:36:41.375Z,76.58
2022-10-16T23:39:47.142Z,77.04
2022-10-16T23:42:53.364Z,76.83
2022-10-16T23:45:59.185Z,76.62
2022-10-16T23:49:05.117Z,77.44
2022-10-16T23:52:11.387Z,77.00
2022-10-16T23:55:17.507Z,77.53
2022-10-16T23:58:23.921Z,77.46
